createdAt,value
2022-09-20T00:01:09.380Z,72.00
2022-09-20T00:03:38.419Z,72.00
2022-09-20T00:06:06.955Z,71.80
2022-09-20T00:08:34.308Z,71.80
2022-09-20T00:11:10.190Z,72.60
2022-09-20T00:13:39.034Z,71.80
2022-09-20T00:16:14.909Z,71.90
2022-09-20T00:18:42.057Z,72.00
2022-09-20T00:21:20.087Z,71.90
2022-09-20T00:23:46.864Z,72.00
2022-09-20T00:26:17.561Z,71.90
2022-09-20T00:28:47.016Z,72.00
2022-09-20T00:31:15.006Z,72.00
2022-09-20T00:34:00.725Z,72.00
2022-09-20T00:36:27.695Z,72.00
2022-09-20T00:38:59.517Z,71.90
2022-09-20T00:41:27.085Z,71.80
2022-09-20T00:43:54.593Z,71.80
2022-09-20T00:46:41.191Z,71.70
2022-09-20T00:49:28.572Z,71.50
2022-09-20T00:52:00.960Z,71.40
2022-09-20T00:54:31.111Z,71.20
2022-09-20T00:56:58.142Z,71.20
2022-09-20T00:59:46.157Z,70.90
2022-09-20T01:02:19.357Z,70.60
2022-09-20T01:04:48.067Z,70.70
2022-09-20T01:07:18.155Z,70.70
2022-09-20T01:09:45.160Z,70.70
2022-09-20T01:12:20.431Z,71.00
2022-09-20T01:14:49.232Z,71.10
2022-09-20T01:17:20.236Z,71.10
2022-09-20T01:20:25.120Z,71.10
2022-09-20T01:23:22.111Z,71.10
2022-09-20T01:26:26.559Z,71.20
2022-09-20T01:29:16.272Z,71.40
2022-09-20T01:31:52.802Z,71.30
2022-09-20T01:34:35.698Z,71.30
2022-09-20T01:37:26.595Z,71.30
2022-09-20T01:40:12.544Z,71.40
2022-09-20T01:42:52.502Z,71.40
2022-09-20T01:45:30.845Z,71.40
2022-09-20T01:48:09.068Z,71.40
2022-09-20T01:51:11.352Z,71.40
2022-09-20T01:54:15.049Z,71.50
2022-09-20T01:57:09.443Z,71.60
2022-09-20T02:00:01.871Z,71.60
2022-09-20T02:02:45.591Z,71.80
2022-09-20T02:06:00.350Z,71.80
2022-09-20T02:08:39.449Z,72.00
2022-09-20T02:11:13.458Z,72.10
2022-09-20T02:13:40.165Z,72.30
2022-09-20T02:16:25.317Z,72.70
2022-09-20T02:19:01.261Z,72.80
2022-09-20T02:21:55.333Z,73.80
2022-09-20T02:25:01.011Z,73.40
2022-09-20T02:27:53.882Z,74.10
2022-09-20T02:30:45.282Z,74.30
2022-09-20T02:33:42.151Z,74.50
2022-09-20T02:36:27.285Z,74.60
2022-09-20T02:39:10.651Z,74.50
2022-09-20T02:41:58.451Z,74.50
2022-09-20T02:44:56.161Z,74.50
2022-09-20T02:47:38.220Z,74.60
2022-09-20T02:50:16.955Z,74.50
2022-09-20T02:53:01.867Z,74.50
2022-09-20T02:55:40.802Z,74.50
2022-09-20T02:58:27.939Z,74.50
2022-09-20T03:01:00.284Z,74.50
2022-09-20T03:03:45.593Z,74.40
2022-09-20T03:06:28.301Z,74.40
2022-09-20T03:09:19.201Z,74.40
2022-09-20T03:12:05.571Z,74.40
2022-09-20T03:14:40.650Z,74.40
2022-09-20T03:17:16.769Z,74.30
2022-09-20T03:20:04.168Z,74.30
2022-09-20T03:22:57.140Z,74.20
2022-09-20T03:25:32.736Z,74.20
2022-09-20T03:28:37.111Z,74.10
2022-09-20T03:31:13.829Z,74.10
2022-09-20T03:33:40.537Z,74.10
2022-09-20T03:36:23.018Z,74.20
2022-09-20T03:39:13.627Z,74.30
2022-09-20T03:42:17.259Z,74.30
2022-09-20T03:45:02.277Z,74.50
2022-09-20T03:47:47.667Z,74.40
2022-09-20T03:50:35.413Z,74.50
2022-09-20T03:53:24.021Z,74.60
2022-09-20T03:56:11.987Z,74.40
2022-09-20T03:58:56.261Z,74.50
2022-09-20T04:02:00.437Z,74.30
2022-09-20T04:04:47.042Z,74.20
2022-09-20T04:07:33.103Z,74.10
2022-09-20T04:10:28.203Z,74.00
2022-09-20T04:13:29.172Z,74.00
2022-09-20T04:16:18.903Z,74.00
2022-09-20T04:19:12.223Z,74.00
2022-09-20T04:21:51.667Z,73.90
2022-09-20T04:24:30.119Z,73.90
2022-09-20T04:27:12.284Z,73.80
2022-09-20T04:29:58.121Z,73.70
2022-09-20T04:32:36.697Z,73.50
2022-09-20T04:35:51.869Z,73.50
2022-09-20T04:38:20.930Z,73.40
2022-09-20T04:41:16.694Z,73.40
2022-09-20T04:43:52.321Z,73.20
2022-09-20T04:46:57.797Z,73.20
2022-09-20T04:49:53.812Z,73.10
2022-09-20T04:52:56.902Z,73.20
2022-09-20T04:55:48.671Z,73.10
2022-09-20T04:58:21.283Z,73.20
2022-09-20T05:01:11.074Z,73.10
2022-09-20T05:04:06.489Z,73.10
2022-09-20T05:06:38.202Z,73.40
2022-09-20T05:09:23.044Z,73.20
2022-09-20T05:11:56.568Z,73.40
2022-09-20T05:17:27.900Z,73.50
2022-09-20T05:20:24.277Z,73.70
2022-09-20T05:23:04.557Z,73.70
2022-09-20T05:25:51.557Z,73.50
2022-09-20T05:28:37.208Z,73.60
2022-09-20T05:31:40.403Z,73.70
2022-09-20T05:34:18.146Z,73.60
2022-09-20T05:37:00.131Z,73.50
2022-09-20T05:40:12.100Z,73.50
2022-09-20T05:42:54.550Z,73.40
2022-09-20T05:45:23.830Z,73.30
2022-09-20T05:48:13.502Z,73.20
2022-09-20T05:51:27.826Z,73.20
2022-09-20T05:54:30.353Z,73.20
2022-09-20T05:57:35.356Z,73.00
2022-09-20T06:00:15.051Z,72.90
2022-09-20T06:03:04.561Z,73.00
2022-09-20T06:05:46.902Z,72.90
2022-09-20T06:08:31.734Z,72.90
2022-09-20T06:11:36.975Z,72.90
2022-09-20T06:14:34.688Z,73.00
2022-09-20T06:17:19.097Z,73.00
2022-09-20T06:20:06.109Z,73.00
2022-09-20T06:22:39.706Z,73.10
2022-09-20T06:25:09.541Z,73.00
2022-09-20T06:27:45.629Z,73.10
2022-09-20T06:30:31.806Z,73.10
2022-09-20T06:33:01.188Z,73.10
2022-09-20T06:35:44.451Z,73.20
2022-09-20T06:38:54.679Z,73.20
2022-09-20T06:41:28.174Z,73.30
2022-09-20T06:43:58.754Z,73.20
2022-09-20T06:46:30.725Z,73.20
2022-09-20T06:48:58.251Z,73.10
2022-09-20T06:51:27.266Z,73.10
2022-09-20T06:53:55.920Z,73.00
2022-09-20T06:56:26.859Z,72.90
2022-09-20T06:58:54.438Z,72.80
2022-09-20T07:01:29.747Z,72.90
2022-09-20T07:03:57.779Z,72.90
2022-09-20T07:06:24.596Z,72.80
2022-09-20T07:08:53.650Z,72.70
2022-09-20T07:11:20.598Z,72.70
2022-09-20T07:13:52.092Z,72.60
2022-09-20T07:16:19.013Z,72.70
2022-09-20T07:18:46.602Z,72.60
2022-09-20T07:21:15.312Z,72.60
2022-09-20T07:23:42.306Z,72.60
2022-09-20T07:26:17.751Z,72.50
2022-09-20T07:28:44.519Z,72.50
2022-09-20T07:31:11.227Z,72.40
2022-09-20T07:33:38.014Z,72.30
2022-09-20T07:36:05.062Z,72.40
2022-09-20T07:38:31.879Z,72.40
2022-09-20T07:41:01.417Z,72.30
2022-09-20T07:43:30.824Z,72.30
2022-09-20T07:45:59.354Z,72.30
2022-09-20T07:48:34.762Z,72.30
2022-09-20T07:51:08.912Z,72.30
2022-09-20T07:53:37.153Z,72.20
2022-09-20T07:56:15.899Z,72.20
2022-09-20T07:58:43.284Z,72.20
2022-09-20T08:01:13.381Z,72.10
2022-09-20T08:03:40.469Z,72.30
2022-09-20T08:06:09.536Z,72.00
2022-09-20T08:08:38.985Z,72.00
2022-09-20T08:11:07.964Z,72.00
2022-09-20T08:16:27.717Z,71.70
2022-09-20T08:18:59.977Z,71.90
2022-09-20T08:21:31.009Z,72.00
2022-09-20T08:23:59.173Z,71.70
2022-09-20T08:26:27.525Z,71.30
2022-09-20T08:28:56.513Z,71.80
2022-09-20T08:31:26.704Z,70.90
2022-09-20T08:33:54.685Z,70.90
2022-09-20T08:36:25.985Z,70.80
2022-09-20T08:41:48.356Z,70.30
2022-09-20T08:44:27.521Z,70.30
2022-09-20T08:47:18.048Z,70.40
2022-09-20T08:49:46.441Z,70.70
2022-09-20T08:52:25.453Z,70.90
2022-09-20T08:54:52.303Z,71.40
2022-09-20T08:57:20.725Z,71.40
2022-09-20T08:59:48.322Z,71.40
2022-09-20T09:02:20.785Z,71.50
2022-09-20T09:04:49.996Z,71.80
2022-09-20T09:07:21.754Z,71.70
2022-09-20T09:09:52.680Z,71.70
2022-09-20T09:12:29.863Z,71.60
2022-09-20T09:15:30.113Z,71.40
2022-09-20T09:17:56.874Z,71.20
2022-09-20T09:20:24.509Z,71.20
2022-09-20T09:23:03.336Z,71.10
2022-09-20T09:25:38.480Z,71.00
2022-09-20T09:28:08.297Z,70.90
2022-09-20T09:30:43.697Z,70.90
2022-09-20T09:33:16.454Z,70.70
2022-09-20T09:35:43.940Z,70.50
2022-09-20T09:38:24.174Z,70.40
2022-09-20T09:41:03.019Z,70.10
2022-09-20T09:43:35.659Z,70.20
2022-09-20T09:46:23.606Z,70.30
2022-09-20T09:49:12.952Z,70.50
2022-09-20T09:51:43.234Z,70.40
2022-09-20T09:54:19.991Z,70.30
2022-09-20T09:57:15.845Z,70.50
2022-09-20T10:00:21.265Z,70.20
2022-09-20T10:03:09.092Z,69.80
2022-09-20T10:05:35.955Z,69.60
2022-09-20T10:08:28.982Z,69.50
2022-09-20T10:11:20.433Z,69.40
2022-09-20T10:14:19.313Z,68.70
2022-09-20T10:17:17.171Z,69.00
2022-09-20T10:20:03.690Z,69.60
2022-09-20T10:23:26.518Z,69.40
2022-09-20T10:25:52.001Z,69.00
2022-09-20T10:28:48.377Z,69.20
2022-09-20T10:31:38.014Z,69.00
2022-09-20T10:34:07.798Z,68.80
2022-09-20T10:37:00.328Z,68.70
2022-09-20T10:39:41.178Z,68.70
2022-09-20T10:42:53.995Z,68.50
2022-09-20T10:45:50.975Z,68.20
2022-09-20T10:48:21.815Z,68.60
2022-09-20T10:50:55.263Z,68.90
2022-09-20T10:53:48.469Z,68.90
2022-09-20T10:56:35.570Z,68.50
2022-09-20T10:59:15.720Z,68.00
2022-09-20T11:01:55.029Z,68.30
2022-09-20T11:04:41.088Z,68.20
2022-09-20T11:07:53.549Z,67.90
2022-09-20T11:10:29.010Z,67.80
2022-09-20T11:13:20.196Z,68.00
2022-09-20T11:15:54.521Z,67.80
2022-09-20T11:18:28.338Z,68.00
2022-09-20T11:21:19.260Z,68.20
2022-09-20T11:23:53.821Z,68.00
2022-09-20T11:26:31.158Z,67.40
2022-09-20T11:29:35.802Z,67.00
2022-09-20T11:32:17.678Z,67.00
2022-09-20T11:35:03.120Z,66.10
2022-09-20T11:37:36.506Z,65.40
2022-09-20T11:40:27.075Z,65.00
2022-09-20T11:42:57.350Z,64.50
2022-09-20T11:45:28.487Z,65.00
2022-09-20T11:48:07.655Z,65.60
2022-09-20T11:51:07.064Z,65.40
2022-09-20T11:54:22.935Z,65.10
2022-09-20T11:56:56.763Z,64.10
2022-09-20T11:59:34.143Z,64.30
2022-09-20T12:02:04.509Z,64.30
2022-09-20T12:04:35.317Z,64.70
2022-09-20T12:07:10.477Z,65.30
2022-09-20T12:09:43.422Z,65.50
2022-09-20T12:12:38.532Z,65.40
2022-09-20T12:15:28.173Z,64.70
2022-09-20T12:17:57.973Z,64.90
2022-09-20T12:20:38.644Z,65.40
2022-09-20T12:23:40.221Z,66.10
2022-09-20T12:26:32.804Z,66.80
2022-09-20T12:29:04.982Z,66.00
2022-09-20T12:31:32.581Z,66.00
2022-09-20T12:34:09.153Z,66.10
2022-09-20T12:36:39.170Z,65.40
2022-09-20T12:39:10.954Z,64.70
2022-09-20T12:42:01.425Z,64.10
2022-09-20T12:44:38.584Z,63.10
2022-09-20T12:47:06.279Z,62.80
2022-09-20T12:50:07.211Z,61.80
2022-09-20T12:52:57.785Z,62.30
2022-09-20T12:55:27.942Z,62.10
2022-09-20T12:58:03.717Z,61.90
2022-09-20T13:00:39.517Z,61.80
2022-09-20T13:03:15.560Z,61.40
2022-09-20T13:05:47.359Z,60.90
2022-09-20T13:08:29.154Z,60.60
2022-09-20T13:11:19.263Z,60.00
2022-09-20T13:13:49.818Z,59.60
2022-09-20T13:16:37.509Z,59.60
2022-09-20T13:19:16.163Z,58.30
2022-09-20T13:22:01.008Z,59.40
2022-09-20T13:24:31.383Z,59.10
2022-09-20T13:27:06.480Z,59.10
2022-09-20T13:29:39.105Z,59.50
2022-09-20T13:32:25.147Z,59.40
2022-09-20T13:35:10.201Z,59.60
2022-09-20T13:37:45.990Z,59.00
2022-09-20T13:40:25.437Z,58.70
2022-09-20T13:43:12.989Z,58.80
2022-09-20T13:45:42.823Z,59.20
2022-09-20T13:48:10.154Z,59.20
2022-09-20T13:50:42.002Z,59.20
2022-09-20T13:53:39.386Z,58.90
2022-09-20T13:56:35.966Z,58.90
2022-09-20T13:59:05.572Z,59.00
2022-09-20T14:01:35.503Z,58.90
2022-09-20T14:04:23.900Z,58.80
2022-09-20T14:06:52.741Z,58.80
2022-09-20T14:09:28.720Z,59.30
2022-09-20T14:11:56.232Z,59.60
2022-09-20T14:14:25.192Z,59.60
2022-09-20T14:16:54.937Z,60.40
2022-09-20T14:19:27.285Z,60.40
2022-09-20T14:21:54.932Z,60.40
2022-09-20T14:24:32.932Z,60.40
2022-09-20T14:27:03.415Z,60.90
2022-09-20T14:29:45.347Z,60.80
2022-09-20T14:32:20.739Z,61.10
2022-09-20T14:35:13.967Z,61.30
2022-09-20T14:37:52.244Z,61.50
2022-09-20T14:40:25.134Z,61.60
2022-09-20T14:42:57.077Z,62.10
2022-09-20T14:45:25.798Z,62.90
2022-09-20T14:48:10.729Z,63.30
2022-09-20T14:50:43.771Z,62.50
2022-09-20T14:53:13.332Z,62.60
2022-09-20T14:55:54.453Z,62.80
2022-09-20T14:58:21.268Z,63.10
2022-09-20T15:00:51.755Z,63.00
2022-09-20T15:03:26.665Z,62.50
2022-09-20T15:05:53.663Z,62.90
2022-09-20T15:08:20.671Z,62.80
2022-09-20T15:10:47.923Z,62.80
2022-09-20T15:13:15.368Z,62.60
2022-09-20T15:15:44.324Z,62.80
2022-09-20T15:18:25.542Z,62.90
2022-09-20T15:20:53.969Z,63.40
2022-09-20T15:23:21.412Z,63.40
2022-09-20T15:25:53.299Z,63.30
2022-09-20T15:28:21.291Z,63.50
2022-09-20T15:30:52.838Z,63.60
2022-09-20T15:33:21.558Z,63.60
2022-09-20T15:35:49.056Z,63.60
2022-09-20T15:38:18.651Z,63.60
2022-09-20T15:40:48.173Z,63.80
2022-09-20T15:43:17.825Z,63.90
2022-09-20T15:45:52.720Z,64.10
2022-09-20T15:48:25.858Z,64.10
2022-09-20T15:51:05.570Z,64.10
2022-09-20T15:53:48.955Z,64.10
2022-09-20T15:56:22.322Z,64.20
2022-09-20T15:59:01.177Z,64.10
2022-09-20T16:01:34.432Z,64.30
2022-09-20T16:04:07.299Z,64.20
2022-09-20T16:06:34.376Z,64.40
2022-09-20T16:09:03.948Z,64.50
2022-09-20T16:11:31.100Z,64.60
2022-09-20T16:13:59.185Z,64.70
2022-09-20T16:16:28.820Z,64.90
2022-09-20T16:19:13.868Z,64.80
2022-09-20T16:21:42.458Z,64.70
2022-09-20T16:24:10.138Z,64.80
2022-09-20T16:26:37.694Z,64.80
2022-09-20T16:29:05.009Z,64.90
2022-09-20T16:31:40.177Z,64.80
2022-09-20T16:34:32.309Z,65.00
2022-09-20T16:37:00.584Z,65.00
2022-09-20T16:39:28.824Z,65.10
2022-09-20T16:41:57.733Z,65.10
2022-09-20T16:44:24.648Z,65.50
2022-09-20T16:46:51.426Z,65.30
2022-09-20T16:49:18.329Z,65.10
2022-09-20T16:51:46.453Z,65.20
2022-09-20T16:54:17.130Z,65.30
2022-09-20T16:56:46.443Z,65.50
2022-09-20T16:59:15.982Z,65.80
2022-09-20T17:01:46.412Z,66.70
2022-09-20T17:04:18.502Z,65.90
2022-09-20T17:06:46.000Z,65.90
2022-09-20T17:09:14.355Z,66.20
2022-09-20T17:11:45.696Z,66.60
2022-09-20T17:14:13.772Z,66.40
2022-09-20T17:16:42.219Z,66.50
2022-09-20T17:19:14.710Z,66.70
2022-09-20T17:21:44.870Z,66.80
2022-09-20T17:24:13.755Z,66.80
2022-09-20T17:26:44.443Z,66.70
2022-09-20T17:29:16.976Z,66.80
2022-09-20T17:31:50.110Z,66.90
2022-09-20T17:34:21.791Z,67.00
2022-09-20T17:36:50.388Z,67.10
2022-09-20T17:39:17.767Z,67.00
2022-09-20T17:41:50.114Z,67.20
2022-09-20T17:44:17.629Z,67.20
2022-09-20T17:46:46.672Z,67.20
2022-09-20T17:49:16.016Z,67.50
2022-09-20T17:51:45.361Z,67.70
2022-09-20T17:54:15.708Z,68.00
2022-09-20T17:56:44.933Z,68.10
2022-09-20T17:59:12.759Z,68.20
2022-09-20T18:01:40.497Z,68.20
2022-09-20T18:04:08.619Z,68.20
2022-09-20T18:06:44.338Z,68.40
2022-09-20T18:09:14.789Z,68.50
2022-09-20T18:11:48.969Z,68.60
2022-09-20T18:14:21.065Z,68.70
2022-09-20T18:16:48.012Z,68.70
2022-09-20T18:19:16.139Z,68.80
2022-09-20T18:21:43.488Z,68.90
2022-09-20T18:24:11.590Z,68.90
2022-09-20T18:26:39.066Z,69.00
2022-09-20T18:29:14.338Z,69.10
2022-09-20T18:31:49.769Z,69.30
2022-09-20T18:34:25.426Z,69.30
2022-09-20T18:36:54.651Z,69.50
2022-09-20T18:39:26.707Z,69.50
2022-09-20T18:41:54.193Z,69.50
2022-09-20T18:44:22.645Z,69.50
2022-09-20T18:46:52.344Z,69.60
2022-09-20T18:49:21.053Z,69.50
2022-09-20T18:51:48.838Z,69.60
2022-09-20T18:54:16.210Z,69.60
2022-09-20T18:56:45.624Z,69.70
2022-09-20T18:59:24.306Z,69.80
2022-09-20T19:01:53.920Z,69.60
2022-09-20T19:04:42.354Z,69.60
2022-09-20T19:07:43.891Z,69.50
2022-09-20T19:10:38.532Z,69.60
2022-09-20T19:13:25.781Z,69.60
2022-09-20T19:15:59.392Z,69.60
2022-09-20T19:18:58.996Z,69.50
2022-09-20T19:21:37.358Z,69.80
2022-09-20T19:24:19.257Z,69.80
2022-09-20T19:26:46.279Z,69.70
2022-09-20T19:29:22.042Z,69.70
2022-09-20T19:31:51.103Z,69.80
2022-09-20T19:34:23.794Z,69.60
2022-09-20T19:37:02.359Z,69.60
2022-09-20T19:39:49.413Z,69.60
2022-09-20T19:42:40.722Z,69.60
2022-09-20T19:45:25.571Z,70.40
2022-09-20T19:48:07.256Z,69.70
2022-09-20T19:50:45.327Z,69.80
2022-09-20T19:53:17.617Z,69.80
2022-09-20T19:55:48.125Z,69.90
2022-09-20T19:58:15.545Z,69.90
2022-09-20T20:00:46.920Z,69.80
2022-09-20T20:03:15.770Z,69.80
2022-09-20T20:05:50.922Z,69.80
2022-09-20T20:08:33.033Z,70.50
2022-09-20T20:11:25.297Z,69.80
2022-09-20T20:14:18.053Z,69.60
2022-09-20T20:17:28.001Z,69.70
2022-09-20T20:20:20.225Z,69.80
2022-09-20T20:23:20.873Z,69.60
2022-09-20T20:26:08.677Z,69.70
2022-09-20T20:28:36.076Z,69.60
2022-09-20T20:31:03.529Z,69.70
2022-09-20T20:33:32.990Z,69.70
2022-09-20T20:36:01.590Z,69.80
2022-09-20T20:38:30.182Z,69.70
2022-09-20T20:41:03.917Z,69.60
2022-09-20T20:43:36.258Z,69.60
2022-09-20T20:46:05.533Z,69.70
2022-09-20T20:48:32.567Z,69.70
2022-09-20T20:51:09.512Z,69.70
2022-09-20T20:53:39.765Z,69.60
2022-09-20T20:56:09.390Z,70.40
2022-09-20T20:58:40.077Z,69.70
2022-09-20T21:01:18.984Z,70.30
2022-09-20T21:03:52.417Z,69.60
2022-09-20T21:06:20.530Z,69.60
2022-09-20T21:08:49.807Z,69.60
2022-09-20T21:11:26.017Z,69.70
2022-09-20T21:13:57.588Z,69.80
2022-09-20T21:16:29.822Z,69.70
2022-09-20T21:18:57.384Z,69.70
2022-09-20T21:21:30.178Z,69.60
2022-09-20T21:24:00.051Z,69.60
2022-09-20T21:26:28.430Z,69.50
2022-09-20T21:28:59.089Z,69.50
2022-09-20T21:31:37.726Z,69.60
2022-09-20T21:34:06.704Z,69.60
2022-09-20T21:36:33.931Z,69.60
2022-09-20T21:39:01.118Z,69.60
2022-09-20T21:41:34.531Z,69.50
2022-09-20T21:44:03.420Z,69.60
2022-09-20T21:46:40.039Z,69.60
2022-09-20T21:49:09.137Z,69.50
2022-09-20T21:51:37.283Z,69.40
2022-09-20T21:54:04.856Z,69.30
2022-09-20T21:56:34.607Z,69.20
2022-09-20T21:59:04.007Z,69.30
2022-09-20T22:01:37.103Z,69.20
2022-09-20T22:04:06.986Z,70.00
2022-09-20T22:06:36.589Z,69.30
2022-09-20T22:09:09.235Z,69.30
2022-09-20T22:11:41.668Z,69.50
2022-09-20T22:14:09.975Z,69.50
2022-09-20T22:16:39.968Z,69.50
2022-09-20T22:19:09.803Z,69.50
2022-09-20T22:21:42.128Z,69.50
2022-09-20T22:24:10.763Z,69.10
2022-09-20T22:26:57.957Z,69.10
2022-09-20T22:29:25.023Z,69.00
2022-09-20T22:31:52.249Z,68.90
2022-09-20T22:34:20.890Z,68.80
2022-09-20T22:36:48.182Z,68.80
2022-09-20T22:39:15.471Z,68.70
2022-09-20T22:41:43.357Z,68.70
2022-09-20T22:44:11.331Z,68.80
2022-09-20T22:46:38.950Z,68.80
2022-09-20T22:49:07.776Z,68.70
2022-09-20T22:51:34.980Z,68.80
2022-09-20T22:54:06.973Z,68.80
2022-09-20T22:56:34.684Z,68.70
2022-09-20T22:59:10.345Z,68.60
2022-09-20T23:01:47.878Z,68.70
2022-09-20T23:04:20.268Z,69.50
2022-09-20T23:06:54.985Z,68.70
2022-09-20T23:09:25.250Z,68.70
2022-09-20T23:11:52.649Z,68.80
2022-09-20T23:14:21.476Z,68.70
2022-09-20T23:16:49.382Z,68.60
2022-09-20T23:19:16.570Z,68.60
2022-09-20T23:21:44.330Z,68.60
2022-09-20T23:24:13.119Z,68.50
2022-09-20T23:26:41.679Z,68.70
2022-09-20T23:29:11.392Z,68.70
2022-09-20T23:31:40.004Z,68.70
2022-09-20T23:34:08.077Z,68.70
2022-09-20T23:36:39.332Z,68.70
2022-09-20T23:39:08.367Z,68.70
2022-09-20T23:41:36.740Z,68.50
2022-09-20T23:44:06.525Z,68.50
2022-09-20T23:46:33.937Z,68.50
2022-09-20T23:49:00.872Z,68.50
2022-09-20T23:51:29.185Z,68.40
2022-09-20T23:53:56.260Z,68.40
2022-09-20T23:56:23.979Z,68.40
2022-09-20T23:58:51.289Z,68.40
